NKS1804 KFLL-KMCO
Flight info
| Callsign | NKS1804 |
|---|---|
| Flight time | 0h 32m |
| Altitude | 22000 |
| Route | FRSBE2 WAPOM MUNGI1 |
| Aircraft | A20N/M-SDE2E3FGHIRWXY/LB1 |
Departure
| Time | 2026-05-03 22:46 |
|---|---|
| Airport | Fort Lauderdale Hollywood International Airport (KFLL) |
Arrival
| Time | 2026-05-03 23:18 |
|---|---|
| Airport | Orlando International Airport (KMCO) |
| Time | Latitude | Longitude | Altitude | Speed | Heading |
|---|---|---|---|---|---|
| 2026-05-03 21:13 | 26.06961 | -80.14144 | 17 ft | 0 kts | 280° |
| 2026-05-03 21:54 | 26.06957 | -80.14117 | 15 ft | 4 kts | 288° |
| 2026-05-03 21:55 | 26.06946 | -80.14099 | 15 ft | 4 kts | 312° |
| 2026-05-03 21:55 | 26.06939 | -80.14086 | 19 ft | 4 kts | 204° |
| 2026-05-03 21:55 | 26.06963 | -80.14083 | 19 ft | 2 kts | 180° |
| 2026-05-03 21:55 | 26.06964 | -80.14083 | 19 ft | 0 kts | 180° |
| 2026-05-03 22:04 | 26.06960 | -80.14083 | 17 ft | 1 kts | 180° |
| 2026-05-03 22:04 | 26.06952 | -80.14083 | 15 ft | 1 kts | 181° |
| 2026-05-03 22:04 | 26.06938 | -80.14083 | 17 ft | 3 kts | 181° |
| 2026-05-03 22:04 | 26.06910 | -80.14083 | 15 ft | 4 kts | 180° |
| 2026-05-03 22:05 | 26.06882 | -80.14084 | 15 ft | 4 kts | 181° |
| 2026-05-03 22:05 | 26.06860 | -80.14085 | 15 ft | 3 kts | 186° |
| 2026-05-03 22:05 | 26.06845 | -80.14088 | 16 ft | 2 kts | 190° |
| 2026-05-03 22:05 | 26.06836 | -80.14092 | 17 ft | 1 kts | 206° |
| 2026-05-03 22:06 | 26.06831 | -80.14097 | 16 ft | 2 kts | 220° |
| 2026-05-03 22:06 | 26.06818 | -80.14130 | 16 ft | 6 kts | 259° |
| 2026-05-03 22:06 | 26.06817 | -80.14151 | 16 ft | 0 kts | 270° |
| 2026-05-03 22:11 | 26.06817 | -80.14155 | 16 ft | 2 kts | 270° |
| 2026-05-03 22:11 | 26.06818 | -80.14181 | 16 ft | 4 kts | 270° |
| 2026-05-03 22:11 | 26.06814 | -80.14220 | 15 ft | 6 kts | 257° |
| 2026-05-03 22:12 | 26.06795 | -80.14263 | 17 ft | 7 kts | 233° |
| 2026-05-03 22:12 | 26.06770 | -80.14312 | 17 ft | 7 kts | 259° |
| 2026-05-03 22:12 | 26.06770 | -80.14355 | 15 ft | 4 kts | 270° |
| 2026-05-03 22:12 | 26.06770 | -80.14366 | 15 ft | 0 kts | 271° |
| 2026-05-03 22:15 | 26.06770 | -80.14367 | 15 ft | 0 kts | 271° |
| 2026-05-03 22:16 | 26.06771 | -80.14382 | 15 ft | 4 kts | 273° |
| 2026-05-03 22:16 | 26.06771 | -80.14426 | 15 ft | 2 kts | 270° |
| 2026-05-03 22:16 | 26.06771 | -80.14431 | 15 ft | 0 kts | 270° |
| 2026-05-03 22:16 | 26.06771 | -80.14433 | 15 ft | 0 kts | 270° |
| 2026-05-03 22:24 | 26.06771 | -80.14449 | 15 ft | 4 kts | 271° |
| 2026-05-03 22:24 | 26.06771 | -80.14490 | 17 ft | 7 kts | 266° |
| 2026-05-03 22:24 | 26.06766 | -80.14551 | 15 ft | 9 kts | 268° |
| 2026-05-03 22:24 | 26.06766 | -80.14631 | 15 ft | 11 kts | 271° |
| 2026-05-03 22:25 | 26.06766 | -80.14710 | 15 ft | 10 kts | 270° |
| 2026-05-03 22:25 | 26.06766 | -80.14782 | 15 ft | 9 kts | 270° |
| 2026-05-03 22:25 | 26.06766 | -80.14845 | 15 ft | 8 kts | 270° |
| 2026-05-03 22:25 | 26.06767 | -80.14899 | 15 ft | 6 kts | 270° |
| 2026-05-03 22:26 | 26.06768 | -80.14944 | 15 ft | 5 kts | 271° |
| 2026-05-03 22:26 | 26.06768 | -80.14982 | 15 ft | 4 kts | 270° |
| 2026-05-03 22:26 | 26.06768 | -80.15008 | 15 ft | 3 kts | 270° |
| 2026-05-03 22:26 | 26.06768 | -80.15026 | 15 ft | 3 kts | 271° |
| 2026-05-03 22:27 | 26.06769 | -80.15065 | 15 ft | 7 kts | 270° |
| 2026-05-03 22:27 | 26.06757 | -80.15120 | 17 ft | 7 kts | 229° |
| 2026-05-03 22:27 | 26.06728 | -80.15132 | 19 ft | 2 kts | 191° |
| 2026-05-03 22:27 | 26.06702 | -80.15149 | 20 ft | 7 kts | 226° |
| 2026-05-03 22:28 | 26.06694 | -80.15215 | 21 ft | 10 kts | 272° |
| 2026-05-03 22:28 | 26.06697 | -80.15314 | 16 ft | 14 kts | 270° |
| 2026-05-03 22:28 | 26.06697 | -80.15420 | 16 ft | 13 kts | 269° |
| 2026-05-03 22:28 | 26.06696 | -80.15511 | 16 ft | 11 kts | 271° |
| 2026-05-03 22:29 | 26.06697 | -80.15578 | 16 ft | 6 kts | 270° |
| 2026-05-03 22:29 | 26.06698 | -80.15606 | 16 ft | 3 kts | 271° |
| 2026-05-03 22:29 | 26.06698 | -80.15610 | 16 ft | 0 kts | 271° |
| 2026-05-03 22:30 | 26.06698 | -80.15615 | 16 ft | 1 kts | 271° |
| 2026-05-03 22:31 | 26.06698 | -80.15635 | 18 ft | 3 kts | 270° |
| 2026-05-03 22:31 | 26.06698 | -80.15643 | 17 ft | 0 kts | 271° |
| 2026-05-03 22:32 | 26.06698 | -80.15646 | 18 ft | 1 kts | 270° |
| 2026-05-03 22:33 | 26.06698 | -80.15662 | 16 ft | 3 kts | 270° |
| 2026-05-03 22:33 | 26.06698 | -80.15700 | 18 ft | 4 kts | 270° |
| 2026-05-03 22:33 | 26.06698 | -80.15714 | 16 ft | 0 kts | 270° |
| 2026-05-03 22:41 | 26.06698 | -80.15716 | 16 ft | 1 kts | 270° |
| 2026-05-03 22:42 | 26.06699 | -80.15735 | 17 ft | 2 kts | 271° |
| 2026-05-03 22:42 | 26.06699 | -80.15753 | 16 ft | 3 kts | 271° |
| 2026-05-03 22:42 | 26.06699 | -80.15761 | 16 ft | 0 kts | 271° |
| 2026-05-03 22:43 | 26.06699 | -80.15772 | 16 ft | 4 kts | 271° |
| 2026-05-03 22:43 | 26.06694 | -80.15802 | 16 ft | 4 kts | 242° |
| 2026-05-03 22:44 | 26.06672 | -80.15817 | 16 ft | 5 kts | 199° |
| 2026-05-03 22:44 | 26.06625 | -80.15820 | 16 ft | 8 kts | 180° |
| 2026-05-03 22:44 | 26.06591 | -80.15807 | 18 ft | 5 kts | 126° |
| 2026-05-03 22:44 | 26.06589 | -80.15791 | 18 ft | 0 kts | 91° |
| 2026-05-03 22:45 | 26.06589 | -80.15789 | 18 ft | 1 kts | 91° |
| 2026-05-03 22:45 | 26.06588 | -80.15744 | 19 ft | 19 kts | 91° |
| 2026-05-03 22:45 | 26.06587 | -80.15310 | 22 ft | 91 kts | 90° |
| 2026-05-03 22:45 | 26.06584 | -80.14385 | 50 ft | 144 kts | 89° |
| 2026-05-03 22:46 | 26.06580 | -80.13256 | 572 ft | 144 kts | 89° |
| 2026-05-03 22:46 | 26.06629 | -80.12125 | 1144 ft | 148 kts | 78° |
| 2026-05-03 22:46 | 26.06909 | -80.10995 | 1709 ft | 157 kts | 68° |
| 2026-05-03 22:46 | 26.07395 | -80.09801 | 2157 ft | 175 kts | 59° |
| 2026-05-03 22:47 | 26.08038 | -80.08583 | 2515 ft | 197 kts | 57° |
| 2026-05-03 22:47 | 26.08948 | -80.07336 | 2876 ft | 221 kts | 35° |
| 2026-05-03 22:47 | 26.10392 | -80.06549 | 3399 ft | 244 kts | 16° |
| 2026-05-03 22:47 | 26.12083 | -80.05907 | 3847 ft | 269 kts | 17° |
| 2026-05-03 22:48 | 26.13876 | -80.05214 | 3980 ft | 274 kts | 15° |
| 2026-05-03 22:48 | 26.15747 | -80.04936 | 4064 ft | 273 kts | 353° |
| 2026-05-03 22:48 | 26.17560 | -80.05426 | 4571 ft | 273 kts | 336° |
| 2026-05-03 22:48 | 26.19349 | -80.06130 | 5614 ft | 273 kts | 337° |
| 2026-05-03 22:49 | 26.21134 | -80.06870 | 6312 ft | 274 kts | 328° |
| 2026-05-03 22:49 | 26.22577 | -80.08198 | 6688 ft | 270 kts | 303° |
| 2026-05-03 22:49 | 26.23406 | -80.10047 | 6885 ft | 268 kts | 289° |
| 2026-05-03 22:49 | 26.24080 | -80.11978 | 6984 ft | 268 kts | 289° |
| 2026-05-03 22:50 | 26.24757 | -80.13925 | 7173 ft | 271 kts | 289° |
| 2026-05-03 22:50 | 26.25484 | -80.15863 | 7970 ft | 271 kts | 294° |
| 2026-05-03 22:50 | 26.26450 | -80.17663 | 9083 ft | 273 kts | 300° |
| 2026-05-03 22:50 | 26.27476 | -80.19448 | 10151 ft | 274 kts | 299° |
| 2026-05-03 22:51 | 26.28526 | -80.21294 | 10745 ft | 293 kts | 299° |
| 2026-05-03 22:51 | 26.29658 | -80.23294 | 11095 ft | 316 kts | 299° |
| 2026-05-03 22:51 | 26.30859 | -80.25415 | 11656 ft | 328 kts | 299° |
| 2026-05-03 22:51 | 26.32087 | -80.27572 | 12542 ft | 331 kts | 299° |
| 2026-05-03 22:52 | 26.33329 | -80.29754 | 13423 ft | 335 kts | 298° |
| 2026-05-03 22:52 | 26.34584 | -80.31962 | 14207 ft | 338 kts | 298° |
| 2026-05-03 22:52 | 26.35848 | -80.34186 | 14959 ft | 341 kts | 298° |
| 2026-05-03 22:52 | 26.37126 | -80.36439 | 15593 ft | 345 kts | 298° |
| 2026-05-03 22:53 | 26.38411 | -80.38706 | 15993 ft | 349 kts | 298° |
| 2026-05-03 22:53 | 26.39709 | -80.40997 | 16817 ft | 350 kts | 298° |
| 2026-05-03 22:53 | 26.41015 | -80.43304 | 17611 ft | 353 kts | 297° |
| 2026-05-03 22:53 | 26.42332 | -80.45628 | 18409 ft | 355 kts | 297° |
| 2026-05-03 22:54 | 26.43657 | -80.47973 | 19043 ft | 359 kts | 297° |
| 2026-05-03 22:54 | 26.44990 | -80.50333 | 19653 ft | 362 kts | 297° |
| 2026-05-03 22:54 | 26.46344 | -80.52729 | 20269 ft | 365 kts | 297° |
| 2026-05-03 22:54 | 26.47967 | -80.54952 | 20890 ft | 377 kts | 310° |
| 2026-05-03 22:55 | 26.50126 | -80.56722 | 21455 ft | 394 kts | 324° |
| 2026-05-03 22:55 | 26.52732 | -80.57871 | 21866 ft | 410 kts | 336° |
| 2026-05-03 22:55 | 26.55488 | -80.58746 | 22007 ft | 413 kts | 336° |
| 2026-05-03 22:55 | 26.58259 | -80.59601 | 22039 ft | 413 kts | 337° |
| 2026-05-03 22:56 | 26.61028 | -80.60458 | 22046 ft | 413 kts | 336° |
| 2026-05-03 22:56 | 26.63794 | -80.61324 | 22052 ft | 412 kts | 336° |
| 2026-05-03 22:56 | 26.66520 | -80.62185 | 22043 ft | 413 kts | 336° |
| 2026-05-03 22:56 | 26.69287 | -80.63060 | 22052 ft | 413 kts | 336° |
| 2026-05-03 22:57 | 26.72080 | -80.63946 | 22051 ft | 412 kts | 336° |
| 2026-05-03 22:57 | 26.74803 | -80.64814 | 22050 ft | 411 kts | 336° |
| 2026-05-03 22:57 | 26.77555 | -80.65695 | 22054 ft | 412 kts | 336° |
| 2026-05-03 22:57 | 26.80314 | -80.66580 | 22039 ft | 412 kts | 336° |
| 2026-05-03 22:58 | 26.83071 | -80.67462 | 22039 ft | 412 kts | 336° |
| 2026-05-03 22:58 | 26.85824 | -80.68342 | 22054 ft | 412 kts | 336° |
| 2026-05-03 22:58 | 26.88536 | -80.69207 | 22048 ft | 412 kts | 336° |
| 2026-05-03 22:58 | 26.91290 | -80.70086 | 22047 ft | 412 kts | 336° |
| 2026-05-03 22:59 | 26.94021 | -80.71030 | 22051 ft | 409 kts | 333° |
| 2026-05-03 22:59 | 26.96714 | -80.72060 | 22050 ft | 408 kts | 333° |
| 2026-05-03 22:59 | 26.99399 | -80.73109 | 22050 ft | 408 kts | 332° |
| 2026-05-03 22:59 | 27.02082 | -80.74151 | 22048 ft | 409 kts | 333° |
| 2026-05-03 23:00 | 27.04773 | -80.75185 | 22048 ft | 409 kts | 333° |
| 2026-05-03 23:00 | 27.07467 | -80.76213 | 22050 ft | 409 kts | 333° |
| 2026-05-03 23:00 | 27.10164 | -80.77236 | 22049 ft | 409 kts | 333° |
| 2026-05-03 23:00 | 27.12859 | -80.78257 | 22048 ft | 409 kts | 333° |
| 2026-05-03 23:01 | 27.15557 | -80.79279 | 22047 ft | 409 kts | 333° |
| 2026-05-03 23:01 | 27.18240 | -80.80296 | 22056 ft | 409 kts | 333° |
| 2026-05-03 23:01 | 27.20939 | -80.81320 | 22045 ft | 408 kts | 333° |
| 2026-05-03 23:01 | 27.23633 | -80.82344 | 21947 ft | 409 kts | 333° |
| 2026-05-03 23:02 | 27.26316 | -80.83363 | 21700 ft | 407 kts | 333° |
| 2026-05-03 23:02 | 27.28996 | -80.84381 | 21453 ft | 404 kts | 333° |
| 2026-05-03 23:02 | 27.31620 | -80.85379 | 21209 ft | 402 kts | 333° |
| 2026-05-03 23:02 | 27.34326 | -80.86241 | 20829 ft | 406 kts | 337° |
| 2026-05-03 23:03 | 27.37060 | -80.87052 | 20255 ft | 406 kts | 337° |
| 2026-05-03 23:03 | 27.39785 | -80.87859 | 19699 ft | 403 kts | 338° |
| 2026-05-03 23:03 | 27.42493 | -80.88663 | 19140 ft | 400 kts | 338° |
| 2026-05-03 23:03 | 27.45175 | -80.89460 | 18565 ft | 397 kts | 338° |
| 2026-05-03 23:04 | 27.47833 | -80.90251 | 17927 ft | 394 kts | 338° |
| 2026-05-03 23:04 | 27.50456 | -80.91032 | 17423 ft | 387 kts | 338° |
| 2026-05-03 23:04 | 27.53094 | -80.91820 | 16731 ft | 386 kts | 338° |
| 2026-05-03 23:04 | 27.55667 | -80.92587 | 16221 ft | 380 kts | 339° |
| 2026-05-03 23:05 | 27.58173 | -80.93336 | 15700 ft | 376 kts | 339° |
| 2026-05-03 23:05 | 27.60687 | -80.94087 | 15154 ft | 373 kts | 339° |
| 2026-05-03 23:05 | 27.63177 | -80.94832 | 14605 ft | 370 kts | 339° |
| 2026-05-03 23:05 | 27.65665 | -80.95577 | 14048 ft | 368 kts | 340° |
| 2026-05-03 23:06 | 27.68127 | -80.96314 | 13516 ft | 365 kts | 340° |
| 2026-05-03 23:06 | 27.70568 | -80.97043 | 12987 ft | 361 kts | 340° |
| 2026-05-03 23:06 | 27.72985 | -80.97764 | 12488 ft | 356 kts | 340° |
| 2026-05-03 23:06 | 27.75348 | -80.98468 | 12210 ft | 350 kts | 340° |
| 2026-05-03 23:07 | 27.77710 | -80.99146 | 12004 ft | 351 kts | 340° |
| 2026-05-03 23:07 | 27.80078 | -80.99851 | 11787 ft | 352 kts | 340° |
| 2026-05-03 23:07 | 27.82436 | -81.00569 | 11575 ft | 350 kts | 340° |
| 2026-05-03 23:07 | 27.84778 | -81.01281 | 11353 ft | 347 kts | 340° |
| 2026-05-03 23:08 | 27.87108 | -81.01987 | 11136 ft | 346 kts | 340° |
| 2026-05-03 23:08 | 27.89426 | -81.02686 | 10930 ft | 343 kts | 340° |
| 2026-05-03 23:08 | 27.91700 | -81.03367 | 10715 ft | 333 kts | 340° |
| 2026-05-03 23:08 | 27.93861 | -81.04140 | 10494 ft | 316 kts | 328° |
| 2026-05-03 23:09 | 27.95630 | -81.05451 | 10372 ft | 297 kts | 319° |
| 2026-05-03 23:09 | 27.97283 | -81.06793 | 10157 ft | 288 kts | 319° |
| 2026-05-03 23:09 | 27.98900 | -81.08111 | 9764 ft | 286 kts | 319° |
| 2026-05-03 23:09 | 28.00509 | -81.09428 | 9310 ft | 285 kts | 319° |
| 2026-05-03 23:10 | 28.02114 | -81.10742 | 8853 ft | 284 kts | 320° |
| 2026-05-03 23:10 | 28.03716 | -81.12053 | 8403 ft | 284 kts | 320° |
| 2026-05-03 23:10 | 28.05316 | -81.13361 | 7971 ft | 284 kts | 320° |
| 2026-05-03 23:10 | 28.06916 | -81.14668 | 7537 ft | 283 kts | 321° |
| 2026-05-03 23:11 | 28.08426 | -81.15903 | 7266 ft | 278 kts | 321° |
| 2026-05-03 23:11 | 28.09955 | -81.17148 | 7173 ft | 264 kts | 321° |
| 2026-05-03 23:11 | 28.11416 | -81.18340 | 7071 ft | 252 kts | 321° |
| 2026-05-03 23:11 | 28.12806 | -81.19474 | 6989 ft | 241 kts | 320° |
| 2026-05-03 23:12 | 28.14091 | -81.20618 | 6840 ft | 231 kts | 314° |
| 2026-05-03 23:12 | 28.15285 | -81.21843 | 6522 ft | 231 kts | 315° |
| 2026-05-03 23:12 | 28.16468 | -81.23046 | 6193 ft | 228 kts | 316° |
| 2026-05-03 23:12 | 28.17653 | -81.24253 | 5795 ft | 229 kts | 316° |
| 2026-05-03 23:13 | 28.18840 | -81.25459 | 5439 ft | 229 kts | 317° |
| 2026-05-03 23:13 | 28.20023 | -81.26661 | 5124 ft | 228 kts | 318° |
| 2026-05-03 23:13 | 28.21308 | -81.27719 | 5018 ft | 230 kts | 340° |
| 2026-05-03 23:13 | 28.22868 | -81.28068 | 4966 ft | 229 kts | 357° |
| 2026-05-03 23:14 | 28.24448 | -81.28074 | 4648 ft | 227 kts | 4° |
| 2026-05-03 23:14 | 28.26032 | -81.28074 | 4124 ft | 229 kts | 1° |
| 2026-05-03 23:14 | 28.27647 | -81.28107 | 3347 ft | 236 kts | 1° |
| 2026-05-03 23:14 | 28.29284 | -81.28154 | 2756 ft | 233 kts | 2° |
| 2026-05-03 23:15 | 28.30881 | -81.28167 | 2210 ft | 223 kts | 5° |
| 2026-05-03 23:15 | 28.32340 | -81.28142 | 1946 ft | 198 kts | 2° |
| 2026-05-03 23:15 | 28.33213 | -81.28151 | 1817 ft | 180 kts | 4° |
| 2026-05-03 23:15 | 28.34724 | -81.28164 | 1522 ft | 147 kts | 4° |
| 2026-05-03 23:16 | 28.35374 | -81.28169 | 1385 ft | 135 kts | 4° |
| 2026-05-03 23:16 | 28.36267 | -81.28182 | 1186 ft | 126 kts | 6° |
| 2026-05-03 23:16 | 28.37155 | -81.28196 | 1023 ft | 127 kts | 5° |
| 2026-05-03 23:16 | 28.38003 | -81.28213 | 849 ft | 118 kts | 7° |
| 2026-05-03 23:17 | 28.38868 | -81.28214 | 704 ft | 127 kts | 3° |
| 2026-05-03 23:17 | 28.39754 | -81.28226 | 536 ft | 128 kts | 4° |
| 2026-05-03 23:17 | 28.40653 | -81.28223 | 372 ft | 132 kts | 4° |
| 2026-05-03 23:17 | 28.41554 | -81.28237 | 201 ft | 125 kts | 4° |
| 2026-05-03 23:18 | 28.42398 | -81.28238 | 100 ft | 115 kts | 4° |
| 2026-05-03 23:18 | 28.43032 | -81.28242 | 95 ft | 62 kts | 359° |
| 2026-05-03 23:18 | 28.43328 | -81.28246 | 96 ft | 34 kts | 360° |
| 2026-05-03 23:18 | 28.43497 | -81.28287 | 95 ft | 12 kts | 323° |
| 2026-05-03 23:19 | 28.43538 | -81.28350 | 98 ft | 7 kts | 275° |
| 2026-05-03 23:19 | 28.43494 | -81.28379 | 95 ft | 10 kts | 179° |
| 2026-05-03 23:19 | 28.43408 | -81.28376 | 94 ft | 15 kts | 178° |
| 2026-05-03 23:19 | 28.43294 | -81.28371 | 96 ft | 18 kts | 178° |
| 2026-05-03 23:20 | 28.43165 | -81.28370 | 97 ft | 20 kts | 180° |
| 2026-05-03 23:20 | 28.43019 | -81.28369 | 97 ft | 22 kts | 179° |
| 2026-05-03 23:20 | 28.42853 | -81.28365 | 94 ft | 25 kts | 179° |
| 2026-05-03 23:20 | 28.42690 | -81.28365 | 97 ft | 23 kts | 179° |
| 2026-05-03 23:21 | 28.42573 | -81.28364 | 97 ft | 14 kts | 179° |
| 2026-05-03 23:21 | 28.42507 | -81.28400 | 95 ft | 12 kts | 248° |
| 2026-05-03 23:21 | 28.42473 | -81.28511 | 96 ft | 17 kts | 251° |
| 2026-05-03 23:21 | 28.42432 | -81.28641 | 99 ft | 19 kts | 251° |
| 2026-05-03 23:22 | 28.42337 | -81.28940 | 103 ft | 23 kts | 250° |
| 2026-05-03 23:22 | 28.42289 | -81.29135 | 94 ft | 24 kts | 264° |
| 2026-05-03 23:22 | 28.42286 | -81.29291 | 93 ft | 16 kts | 269° |
| 2026-05-03 23:23 | 28.42284 | -81.29382 | 94 ft | 6 kts | 269° |
| 2026-05-03 23:23 | 28.42284 | -81.29398 | 94 ft | 0 kts | 270° |
| 2026-05-03 23:26 | 28.42284 | -81.29399 | 94 ft | 1 kts | 270° |
| 2026-05-03 23:26 | 28.42284 | -81.29438 | 94 ft | 9 kts | 270° |
| 2026-05-03 23:27 | 28.42284 | -81.29535 | 94 ft | 15 kts | 270° |
| 2026-05-03 23:27 | 28.42283 | -81.29662 | 94 ft | 14 kts | 269° |
| 2026-05-03 23:27 | 28.42282 | -81.29752 | 94 ft | 10 kts | 273° |
| 2026-05-03 23:27 | 28.42328 | -81.29793 | 96 ft | 11 kts | 357° |
| 2026-05-03 23:28 | 28.42413 | -81.29794 | 94 ft | 14 kts | 0° |
| 2026-05-03 23:28 | 28.42519 | -81.29795 | 94 ft | 17 kts | 359° |
| 2026-05-03 23:28 | 28.42642 | -81.29797 | 95 ft | 18 kts | 359° |
| 2026-05-03 23:28 | 28.42775 | -81.29798 | 96 ft | 20 kts | 359° |
| 2026-05-03 23:29 | 28.42919 | -81.29800 | 94 ft | 22 kts | 360° |
| 2026-05-03 23:29 | 28.43078 | -81.29800 | 94 ft | 24 kts | 360° |
| 2026-05-03 23:29 | 28.43247 | -81.29802 | 96 ft | 24 kts | 359° |
| 2026-05-03 23:29 | 28.43414 | -81.29804 | 95 ft | 24 kts | 359° |
| 2026-05-03 23:30 | 28.43582 | -81.29807 | 94 ft | 24 kts | 359° |
| 2026-05-03 23:30 | 28.43743 | -81.29817 | 96 ft | 22 kts | 347° |
| 2026-05-03 23:30 | 28.43867 | -81.29925 | 97 ft | 23 kts | 303° |
| 2026-05-03 23:30 | 28.43902 | -81.30105 | 100 ft | 24 kts | 274° |
| 2026-05-03 23:31 | 28.43910 | -81.30289 | 102 ft | 23 kts | 272° |
| 2026-05-03 23:31 | 28.43918 | -81.30483 | 105 ft | 25 kts | 273° |
| 2026-05-03 23:31 | 28.43931 | -81.30691 | 109 ft | 27 kts | 274° |
| 2026-05-03 23:31 | 28.43946 | -81.30907 | 107 ft | 28 kts | 275° |
| 2026-05-03 23:32 | 28.43941 | -81.31108 | 106 ft | 25 kts | 263° |
| 2026-05-03 23:32 | 28.43931 | -81.31313 | 107 ft | 25 kts | 267° |
| 2026-05-03 23:32 | 28.43913 | -81.31453 | 104 ft | 11 kts | 229° |
| 2026-05-03 23:32 | 28.43830 | -81.31457 | 104 ft | 15 kts | 171° |
| 2026-05-03 23:33 | 28.43759 | -81.31428 | 102 ft | 6 kts | 157° |
| 2026-05-03 23:33 | 28.43727 | -81.31413 | 101 ft | 5 kts | 158° |
| 2026-05-03 23:33 | 28.43683 | -81.31412 | 97 ft | 8 kts | 223° |
| 2026-05-03 23:33 | 28.43677 | -81.31432 | 95 ft | 0 kts | 263° |
| 2026-05-03 23:34 | 28.43677 | -81.31437 | 95 ft | 3 kts | 264° |
| 2026-05-03 23:34 | 28.43687 | -81.31479 | 98 ft | 7 kts | 296° |
| 2026-05-03 23:34 | 28.43705 | -81.31557 | 99 ft | 14 kts | 265° |
| 2026-05-03 23:34 | 28.43620 | -81.31639 | 98 ft | 20 kts | 193° |
| 2026-05-03 23:35 | 28.43475 | -81.31671 | 94 ft | 23 kts | 191° |
| 2026-05-03 23:35 | 28.43336 | -81.31703 | 96 ft | 15 kts | 192° |
| 2026-05-03 23:35 | 28.43265 | -81.31669 | 94 ft | 9 kts | 120° |
| 2026-05-03 23:35 | 28.43264 | -81.31637 | 95 ft | 2 kts | 82° |
| 2026-05-03 23:36 | 28.43267 | -81.31623 | 95 ft | 1 kts | 79° |
| 2026-05-03 23:36 | 28.43270 | -81.31601 | 94 ft | 4 kts | 74° |
| 2026-05-03 23:36 | 28.43292 | -81.31580 | 94 ft | 4 kts | 20° |
| 2026-05-03 23:36 | 28.43317 | -81.31573 | 95 ft | 2 kts | 14° |
| 2026-05-03 23:37 | 28.43328 | -81.31569 | 94 ft | 0 kts | 16° |